sensor_id;sensor_type;location;lat;lon;timestamp;P1;durP1;ratioP1;P2;durP2;ratioP2
537;SDS011;254;48.524;8.926;2022-11-15T00:00:02;6.0;;;3.7;;
537;SDS011;254;48.524;8.926;2022-11-15T00:01:02;6.5;;;3.8;;
537;SDS011;254;48.524;8.926;2022-11-15T00:02:02;4.6;;;4.0;;
537;SDS011;254;48.524;8.926;2022-11-15T00:03:02;4.6;;;3.6;;
537;SDS011;254;48.524;8.926;2022-11-15T00:04:03;12.3;;;4.2;;
537;SDS011;254;48.524;8.926;2022-11-15T00:05:02;4.6;;;4.1;;
537;SDS011;254;48.524;8.926;2022-11-15T00:06:02;5.0;;;4.0;;
537;SDS011;254;48.524;8.926;2022-11-15T00:07:02;5.1;;;3.8;;
537;SDS011;254;48.524;8.926;2022-11-15T00:08:02;7.4;;;3.8;;
537;SDS011;254;48.524;8.926;2022-11-15T00:09:02;6.8;;;4.6;;
537;SDS011;254;48.524;8.926;2022-11-15T00:10:03;7.7;;;5.2;;
537;SDS011;254;48.524;8.926;2022-11-15T00:11:02;6.5;;;4.6;;
537;SDS011;254;48.524;8.926;2022-11-15T00:12:02;6.4;;;4.5;;
537;SDS011;254;48.524;8.926;2022-11-15T00:13:04;6.1;;;5.1;;
537;SDS011;254;48.524;8.926;2022-11-15T00:14:02;6.4;;;4.7;;
537;SDS011;254;48.524;8.926;2022-11-15T00:15:03;9.3;;;5.7;;
537;SDS011;254;48.524;8.926;2022-11-15T00:16:02;6.0;;;4.7;;
537;SDS011;254;48.524;8.926;2022-11-15T00:17:02;7.2;;;4.8;;
537;SDS011;254;48.524;8.926;2022-11-15T00:18:02;7.0;;;5.0;;
537;SDS011;254;48.524;8.926;2022-11-15T00:19:02;6.3;;;5.3;;
537;SDS011;254;48.524;8.926;2022-11-15T00:20:02;5.8;;;4.8;;
537;SDS011;254;48.524;8.926;2022-11-15T00:21:03;8.7;;;5.0;;
537;SDS011;254;48.524;8.926;2022-11-15T00:22:02;7.5;;;5.5;;
537;SDS011;254;48.524;8.926;2022-11-15T00:23:03;6.7;;;5.3;;
537;SDS011;254;48.524;8.926;2022-11-15T00:24:01;6.5;;;5.1;;
537;SDS011;254;48.524;8.926;2022-11-15T00:25:02;7.1;;;4.7;;
537;SDS011;254;48.524;8.926;2022-11-15T00:26:03;7.0;;;4.9;;
537;SDS011;254;48.524;8.926;2022-11-15T00:27:02;7.8;;;5.7;;
537;SDS011;254;48.524;8.926;2022-11-15T00:28:02;6.0;;;5.1;;
537;SDS011;254;48.524;8.926;2022-11-15T00:29:03;7.5;;;5.1;;
537;SDS011;254;48.524;8.926;2022-11-15T00:30:03;8.1;;;5.1;;
537;SDS011;254;48.524;8.926;2022-11-15T00:31:02;5.0;;;4.5;;
537;SDS011;254;48.524;8.926;2022-11-15T00:32:03;8.6;;;4.6;;
537;SDS011;254;48.524;8.926;2022-11-15T00:33:02;6.3;;;4.5;;
537;SDS011;254;48.524;8.926;2022-11-15T00:34:02;6.5;;;5.0;;
537;SDS011;254;48.524;8.926;2022-11-15T00:35:03;8.1;;;4.5;;
537;SDS011;254;48.524;8.926;2022-11-15T00:36:04;6.2;;;4.3;;
537;SDS011;254;48.524;8.926;2022-11-15T00:37:02;8.4;;;4.1;;
537;SDS011;254;48.524;8.926;2022-11-15T00:38:02;5.2;;;4.2;;
537;SDS011;254;48.524;8.926;2022-11-15T00:39:03;6.3;;;4.1;;
537;SDS011;254;48.524;8.926;2022-11-15T00:40:03;6.3;;;4.6;;
537;SDS011;254;48.524;8.926;2022-11-15T00:41:02;6.2;;;4.3;;
537;SDS011;254;48.524;8.926;2022-11-15T00:42:02;6.7;;;4.5;;
537;SDS011;254;48.524;8.926;2022-11-15T00:43:03;6.6;;;5.3;;
537;SDS011;254;48.524;8.926;2022-11-15T00:44:01;6.6;;;5.2;;
537;SDS011;254;48.524;8.926;2022-11-15T00:45:02;5.7;;;4.5;;
537;SDS011;254;48.524;8.926;2022-11-15T00:46:03;5.9;;;4.6;;
537;SDS011;254;48.524;8.926;2022-11-15T00:47:02;7.7;;;4.9;;
537;SDS011;254;48.524;8.926;2022-11-15T00:48:02;6.3;;;5.2;;
537;SDS011;254;48.524;8.926;2022-11-15T00:49:03;6.2;;;5.6;;
537;SDS011;254;48.524;8.926;2022-11-15T00:50:02;6.6;;;5.4;;
537;SDS011;254;48.524;8.926;2022-11-15T00:51:03;5.9;;;4.8;;
537;SDS011;254;48.524;8.926;2022-11-15T00:52:02;6.8;;;5.1;;
537;SDS011;254;48.524;8.926;2022-11-15T00:53:02;6.3;;;5.2;;
537;SDS011;254;48.524;8.926;2022-11-15T00:54:03;6.7;;;5.3;;
537;SDS011;254;48.524;8.926;2022-11-15T00:55:02;5.6;;;5.1;;
537;SDS011;254;48.524;8.926;2022-11-15T00:56:02;7.2;;;5.7;;
537;SDS011;254;48.524;8.926;2022-11-15T00:57:02;7.8;;;5.6;;
537;SDS011;254;48.524;8.926;2022-11-15T00:58:02;7.5;;;6.0;;
537;SDS011;254;48.524;8.926;2022-11-15T00:59:03;6.7;;;5.7;;
537;SDS011;254;48.524;8.926;2022-11-15T01:00:02;7.6;;;5.6;;
537;SDS011;254;48.524;8.926;2022-11-15T01:01:05;7.3;;;6.1;;
537;SDS011;254;48.524;8.926;2022-11-15T01:02:02;6.6;;;5.9;;
537;SDS011;254;48.524;8.926;2022-11-15T01:03:03;7.8;;;5.4;;
537;SDS011;254;48.524;8.926;2022-11-15T01:04:02;6.6;;;4.9;;
537;SDS011;254;48.524;8.926;2022-11-15T01:05:02;6.7;;;4.5;;
537;SDS011;254;48.524;8.926;2022-11-15T01:06:03;5.1;;;4.0;;
537;SDS011;254;48.524;8.926;2022-11-15T01:07:02;4.8;;;4.1;;
537;SDS011;254;48.524;8.926;2022-11-15T01:08:05;4.9;;;4.0;;
537;SDS011;254;48.524;8.926;2022-11-15T01:09:01;5.4;;;3.7;;
537;SDS011;254;48.524;8.926;2022-11-15T01:10:02;6.4;;;4.0;;
537;SDS011;254;48.524;8.926;2022-11-15T01:11:03;4.8;;;4.3;;
537;SDS011;254;48.524;8.926;2022-11-15T01:12:03;5.4;;;4.2;;
537;SDS011;254;48.524;8.926;2022-11-15T01:13:02;4.9;;;4.0;;
537;SDS011;254;48.524;8.926;2022-11-15T01:14:03;7.2;;;4.3;;
537;SDS011;254;48.524;8.926;2022-11-15T01:15:03;6.8;;;4.4;;
537;SDS011;254;48.524;8.926;2022-11-15T01:16:05;5.4;;;4.2;;
537;SDS011;254;48.524;8.926;2022-11-15T01:17:03;5.8;;;4.3;;
537;SDS011;254;48.524;8.926;2022-11-15T01:18:02;4.2;;;3.8;;
537;SDS011;254;48.524;8.926;2022-11-15T01:19:02;5.2;;;3.9;;
537;SDS011;254;48.524;8.926;2022-11-15T01:20:03;6.5;;;4.0;;
537;SDS011;254;48.524;8.926;2022-11-15T01:21:06;5.2;;;3.8;;
537;SDS011;254;48.524;8.926;2022-11-15T01:22:02;5.4;;;3.9;;
537;SDS011;254;48.524;8.926;2022-11-15T01:23:02;6.9;;;4.2;;
537;SDS011;254;48.524;8.926;2022-11-15T01:24:02;3.9;;;3.3;;
537;SDS011;254;48.524;8.926;2022-11-15T01:25:03;4.6;;;3.5;;
537;SDS011;254;48.524;8.926;2022-11-15T01:26:03;5.5;;;3.7;;
537;SDS011;254;48.524;8.926;2022-11-15T01:27:02;4.8;;;2.8;;
537;SDS011;254;48.524;8.926;2022-11-15T01:28:03;5.9;;;2.7;;
537;SDS011;254;48.524;8.926;2022-11-15T01:29:03;4.4;;;3.0;;
537;SDS011;254;48.524;8.926;2022-11-15T01:30:02;6.1;;;3.1;;
537;SDS011;254;48.524;8.926;2022-11-15T01:31:04;5.8;;;3.0;;
537;SDS011;254;48.524;8.926;2022-11-15T01:32:02;6.2;;;3.6;;
537;SDS011;254;48.524;8.926;2022-11-15T01:33:02;3.7;;;2.9;;
537;SDS011;254;48.524;8.926;2022-11-15T01:34:04;4.3;;;2.9;;
537;SDS011;254;48.524;8.926;2022-11-15T01:35:02;4.7;;;3.1;;
537;SDS011;254;48.524;8.926;2022-11-15T01:36:03;5.4;;;3.1;;
537;SDS011;254;48.524;8.926;2022-11-15T01:37:02;3.1;;;2.8;;
537;SDS011;254;48.524;8.926;2022-11-15T01:38:02;7.0;;;3.2;;
537;SDS011;254;48.524;8.926;2022-11-15T01:39:03;5.2;;;3.4;;
537;SDS011;254;48.524;8.926;2022-11-15T01:40:02;5.5;;;2.9;;
537;SDS011;254;48.524;8.926;2022-11-15T01:41:02;5.6;;;3.3;;
537;SDS011;254;48.524;8.926;2022-11-15T01:42:02;6.6;;;3.6;;
537;SDS011;254;48.524;8.926;2022-11-15T01:43:18;4.0;;;3.5;;
537;SDS011;254;48.524;8.926;2022-11-15T01:45:02;5.1;;;4.1;;
537;SDS011;254;48.524;8.926;2022-11-15T01:46:02;5.3;;;3.9;;
537;SDS011;254;48.524;8.926;2022-11-15T01:47:03;4.5;;;3.7;;
537;SDS011;254;48.524;8.926;2022-11-15T01:48:03;4.1;;;3.7;;
537;SDS011;254;48.524;8.926;2022-11-15T01:49:02;5.3;;;3.9;;
537;SDS011;254;48.524;8.926;2022-11-15T01:50:03;5.9;;;4.3;;
537;SDS011;254;48.524;8.926;2022-11-15T01:51:04;5.7;;;4.2;;
537;SDS011;254;48.524;8.926;2022-11-15T01:52:04;4.9;;;4.1;;
537;SDS011;254;48.524;8.926;2022-11-15T01:53:02;5.8;;;4.5;;
537;SDS011;254;48.524;8.926;2022-11-15T01:54:02;5.3;;;4.7;;
537;SDS011;254;48.524;8.926;2022-11-15T01:55:06;6.6;;;4.6;;
537;SDS011;254;48.524;8.926;2022-11-15T01:56:02;5.5;;;4.0;;
537;SDS011;254;48.524;8.926;2022-11-15T01:57:03;7.8;;;4.3;;
537;SDS011;254;48.524;8.926;2022-11-15T01:58:03;5.4;;;4.5;;
537;SDS011;254;48.524;8.926;2022-11-15T01:59:05;5.8;;;4.9;;
537;SDS011;254;48.524;8.926;2022-11-15T02:00:03;6.9;;;4.3;;
537;SDS011;254;48.524;8.926;2022-11-15T02:01:02;5.1;;;4.6;;
537;SDS011;254;48.524;8.926;2022-11-15T02:02:02;5.6;;;4.5;;
537;SDS011;254;48.524;8.926;2022-11-15T02:03:02;5.7;;;4.4;;
537;SDS011;254;48.524;8.926;2022-11-15T02:04:04;7.7;;;4.9;;
537;SDS011;254;48.524;8.926;2022-11-15T02:05:02;5.9;;;5.0;;
537;SDS011;254;48.524;8.926;2022-11-15T02:06:01;5.6;;;4.7;;
537;SDS011;254;48.524;8.926;2022-11-15T02:07:03;6.2;;;4.8;;
537;SDS011;254;48.524;8.926;2022-11-15T02:08:02;5.9;;;4.5;;
537;SDS011;254;48.524;8.926;2022-11-15T02:09:02;6.5;;;4.5;;
537;SDS011;254;48.524;8.926;2022-11-15T02:10:05;4.7;;;4.2;;
537;SDS011;254;48.524;8.926;2022-11-15T02:11:04;4.8;;;3.6;;
537;SDS011;254;48.524;8.926;2022-11-15T02:12:02;3.9;;;3.3;;
537;SDS011;254;48.524;8.926;2022-11-15T02:13:03;4.3;;;3.1;;
537;SDS011;254;48.524;8.926;2022-11-15T02:14:01;4.6;;;3.0;;
537;SDS011;254;48.524;8.926;2022-11-15T02:15:02;4.1;;;3.2;;
537;SDS011;254;48.524;8.926;2022-11-15T02:16:05;5.9;;;3.1;;
537;SDS011;254;48.524;8.926;2022-11-15T02:17:12;4.5;;;3.5;;
537;SDS011;254;48.524;8.926;2022-11-15T02:18:06;5.3;;;3.3;;
537;SDS011;254;48.524;8.926;2022-11-15T02:19:10;5.5;;;3.4;;
537;SDS011;254;48.524;8.926;2022-11-15T02:20:11;4.7;;;3.4;;
537;SDS011;254;48.524;8.926;2022-11-15T02:21:05;4.9;;;3.3;;
537;SDS011;254;48.524;8.926;2022-11-15T02:22:04;5.4;;;3.4;;
537;SDS011;254;48.524;8.926;2022-11-15T02:23:07;4.2;;;3.1;;
537;SDS011;254;48.524;8.926;2022-11-15T02:24:13;4.8;;;3.4;;
537;SDS011;254;48.524;8.926;2022-11-15T02:25:03;4.4;;;3.6;;
537;SDS011;254;48.524;8.926;2022-11-15T02:26:07;4.7;;;3.6;;
537;SDS011;254;48.524;8.926;2022-11-15T02:28:01;4.3;;;3.6;;
537;SDS011;254;48.524;8.926;2022-11-15T02:28:10;5.9;;;3.4;;
537;SDS011;254;48.524;8.926;2022-11-15T02:29:03;6.6;;;3.3;;
537;SDS011;254;48.524;8.926;2022-11-15T02:31:03;5.1;;;3.6;;
537;SDS011;254;48.524;8.926;2022-11-15T02:32:05;4.6;;;3.5;;
537;SDS011;254;48.524;8.926;2022-11-15T02:33:03;4.7;;;3.5;;
537;SDS011;254;48.524;8.926;2022-11-15T02:34:04;4.8;;;3.4;;
537;SDS011;254;48.524;8.926;2022-11-15T02:35:02;4.1;;;3.4;;
537;SDS011;254;48.524;8.926;2022-11-15T02:36:02;4.7;;;3.8;;
537;SDS011;254;48.524;8.926;2022-11-15T02:37:03;4.3;;;3.4;;
537;SDS011;254;48.524;8.926;2022-11-15T02:38:04;3.9;;;3.3;;
537;SDS011;254;48.524;8.926;2022-11-15T02:39:03;4.4;;;3.1;;
537;SDS011;254;48.524;8.926;2022-11-15T02:40:04;5.6;;;3.3;;
537;SDS011;254;48.524;8.926;2022-11-15T02:41:02;5.2;;;3.0;;
537;SDS011;254;48.524;8.926;2022-11-15T02:42:03;4.0;;;3.6;;
537;SDS011;254;48.524;8.926;2022-11-15T02:43:04;5.3;;;3.3;;
537;SDS011;254;48.524;8.926;2022-11-15T02:44:03;5.1;;;3.4;;
537;SDS011;254;48.524;8.926;2022-11-15T02:45:03;5.5;;;3.3;;
537;SDS011;254;48.524;8.926;2022-11-15T02:46:03;7.9;;;3.3;;
537;SDS011;254;48.524;8.926;2022-11-15T02:47:03;8.2;;;4.0;;
537;SDS011;254;48.524;8.926;2022-11-15T02:48:02;5.4;;;3.3;;
537;SDS011;254;48.524;8.926;2022-11-15T02:49:03;4.6;;;3.5;;
537;SDS011;254;48.524;8.926;2022-11-15T02:50:03;4.9;;;3.6;;
537;SDS011;254;48.524;8.926;2022-11-15T02:51:02;6.2;;;3.6;;
537;SDS011;254;48.524;8.926;2022-11-15T02:52:02;4.4;;;3.5;;
537;SDS011;254;48.524;8.926;2022-11-15T02:53:03;3.8;;;3.1;;
537;SDS011;254;48.524;8.926;2022-11-15T02:54:04;5.1;;;3.5;;
537;SDS011;254;48.524;8.926;2022-11-15T02:55:02;5.6;;;3.7;;
537;SDS011;254;48.524;8.926;2022-11-15T02:56:03;4.3;;;3.5;;
537;SDS011;254;48.524;8.926;2022-11-15T02:57:03;4.8;;;3.3;;
537;SDS011;254;48.524;8.926;2022-11-15T02:58:06;7.0;;;3.4;;
537;SDS011;254;48.524;8.926;2022-11-15T02:59:07;3.5;;;3.0;;
537;SDS011;254;48.524;8.926;2022-11-15T03:00:04;3.4;;;3.0;;
537;SDS011;254;48.524;8.926;2022-11-15T03:01:03;5.5;;;3.1;;
537;SDS011;254;48.524;8.926;2022-11-15T03:02:06;4.4;;;3.5;;
537;SDS011;254;48.524;8.926;2022-11-15T03:03:08;5.4;;;3.3;;
537;SDS011;254;48.524;8.926;2022-11-15T03:04:06;4.6;;;3.7;;
537;SDS011;254;48.524;8.926;2022-11-15T03:05:03;4.3;;;3.1;;
537;SDS011;254;48.524;8.926;2022-11-15T03:06:04;3.9;;;3.5;;
537;SDS011;254;48.524;8.926;2022-11-15T03:07:05;4.2;;;3.4;;
537;SDS011;254;48.524;8.926;2022-11-15T03:08:04;4.6;;;3.4;;
537;SDS011;254;48.524;8.926;2022-11-15T03:09:05;4.5;;;3.3;;
537;SDS011;254;48.524;8.926;2022-11-15T03:10:05;4.6;;;3.0;;
537;SDS011;254;48.524;8.926;2022-11-15T03:11:03;4.4;;;3.3;;
537;SDS011;254;48.524;8.926;2022-11-15T03:12:03;3.8;;;3.4;;
537;SDS011;254;48.524;8.926;2022-11-15T03:13:05;5.2;;;3.4;;
537;SDS011;254;48.524;8.926;2022-11-15T03:14:03;3.6;;;3.1;;
537;SDS011;254;48.524;8.926;2022-11-15T03:15:04;5.9;;;3.4;;
537;SDS011;254;48.524;8.926;2022-11-15T03:16:03;3.5;;;2.9;;
537;SDS011;254;48.524;8.926;2022-11-15T03:17:03;6.1;;;3.3;;
537;SDS011;254;48.524;8.926;2022-11-15T03:18:04;3.6;;;3.1;;
537;SDS011;254;48.524;8.926;2022-11-15T03:19:03;5.1;;;3.7;;
537;SDS011;254;48.524;8.926;2022-11-15T03:20:03;10.8;;;3.8;;
537;SDS011;254;48.524;8.926;2022-11-15T03:21:03;6.7;;;3.3;;
537;SDS011;254;48.524;8.926;2022-11-15T03:22:04;4.7;;;3.9;;
537;SDS011;254;48.524;8.926;2022-11-15T03:23:03;6.4;;;3.7;;
537;SDS011;254;48.524;8.926;2022-11-15T03:24:03;4.8;;;3.3;;
537;SDS011;254;48.524;8.926;2022-11-15T03:25:04;4.4;;;3.4;;
537;SDS011;254;48.524;8.926;2022-11-15T03:26:03;3.9;;;3.1;;
537;SDS011;254;48.524;8.926;2022-11-15T03:27:03;4.3;;;3.8;;
537;SDS011;254;48.524;8.926;2022-11-15T03:28:03;3.8;;;3.4;;
537;SDS011;254;48.524;8.926;2022-11-15T03:29:03;3.6;;;3.1;;
537;SDS011;254;48.524;8.926;2022-11-15T03:30:04;5.0;;;3.4;;
537;SDS011;254;48.524;8.926;2022-11-15T03:31:02;4.0;;;3.2;;
537;SDS011;254;48.524;8.926;2022-11-15T03:32:03;5.5;;;3.8;;
537;SDS011;254;48.524;8.926;2022-11-15T03:33:02;7.0;;;3.4;;
537;SDS011;254;48.524;8.926;2022-11-15T03:34:03;4.0;;;3.5;;
537;SDS011;254;48.524;8.926;2022-11-15T03:35:04;7.2;;;3.8;;
537;SDS011;254;48.524;8.926;2022-11-15T03:36:02;4.9;;;4.1;;
537;SDS011;254;48.524;8.926;2022-11-15T03:37:02;4.7;;;3.6;;
537;SDS011;254;48.524;8.926;2022-11-15T03:38:04;5.2;;;3.5;;
537;SDS011;254;48.524;8.926;2022-11-15T03:39:04;5.5;;;3.5;;
537;SDS011;254;48.524;8.926;2022-11-15T03:40:02;4.5;;;3.2;;
537;SDS011;254;48.524;8.926;2022-11-15T03:41:04;6.3;;;3.4;;
537;SDS011;254;48.524;8.926;2022-11-15T03:42:06;5.3;;;3.2;;
537;SDS011;254;48.524;8.926;2022-11-15T03:43:04;3.8;;;3.4;;
537;SDS011;254;48.524;8.926;2022-11-15T03:44:04;4.1;;;3.3;;
537;SDS011;254;48.524;8.926;2022-11-15T03:45:03;3.7;;;3.3;;
537;SDS011;254;48.524;8.926;2022-11-15T03:46:05;5.7;;;3.5;;
537;SDS011;254;48.524;8.926;2022-11-15T03:47:03;5.2;;;3.5;;
537;SDS011;254;48.524;8.926;2022-11-15T03:48:03;4.0;;;3.2;;
537;SDS011;254;48.524;8.926;2022-11-15T03:49:04;4.4;;;3.4;;
537;SDS011;254;48.524;8.926;2022-11-15T03:50:04;3.9;;;3.1;;
537;SDS011;254;48.524;8.926;2022-11-15T03:51:02;5.0;;;3.1;;
537;SDS011;254;48.524;8.926;2022-11-15T03:52:03;4.1;;;3.3;;
537;SDS011;254;48.524;8.926;2022-11-15T03:53:02;3.7;;;3.1;;
537;SDS011;254;48.524;8.926;2022-11-15T03:54:02;3.6;;;3.3;;
537;SDS011;254;48.524;8.926;2022-11-15T03:55:03;4.7;;;3.3;;
537;SDS011;254;48.524;8.926;2022-11-15T03:56:02;5.3;;;3.9;;
537;SDS011;254;48.524;8.926;2022-11-15T03:57:02;4.9;;;3.6;;
537;SDS011;254;48.524;8.926;2022-11-15T03:58:02;3.8;;;3.4;;
537;SDS011;254;48.524;8.926;2022-11-15T03:59:02;5.0;;;3.8;;
537;SDS011;254;48.524;8.926;2022-11-15T04:00:02;6.2;;;3.5;;
537;SDS011;254;48.524;8.926;2022-11-15T04:01:02;6.0;;;3.7;;
537;SDS011;254;48.524;8.926;2022-11-15T04:02:02;4.6;;;3.6;;
537;SDS011;254;48.524;8.926;2022-11-15T04:03:03;5.3;;;3.9;;
537;SDS011;254;48.524;8.926;2022-11-15T04:04:02;4.6;;;3.8;;
537;SDS011;254;48.524;8.926;2022-11-15T04:05:02;5.9;;;3.6;;
537;SDS011;254;48.524;8.926;2022-11-15T04:06:03;4.8;;;3.5;;
537;SDS011;254;48.524;8.926;2022-11-15T04:07:02;5.3;;;4.2;;
537;SDS011;254;48.524;8.926;2022-11-15T04:08:02;7.3;;;4.6;;
537;SDS011;254;48.524;8.926;2022-11-15T04:09:03;10.0;;;5.4;;
537;SDS011;254;48.524;8.926;2022-11-15T04:10:02;10.8;;;5.8;;
537;SDS011;254;48.524;8.926;2022-11-15T04:11:02;9.9;;;5.8;;
537;SDS011;254;48.524;8.926;2022-11-15T04:12:03;6.2;;;4.6;;
537;SDS011;254;48.524;8.926;2022-11-15T04:13:03;10.9;;;7.1;;
537;SDS011;254;48.524;8.926;2022-11-15T04:14:02;6.8;;;4.7;;
537;SDS011;254;48.524;8.926;2022-11-15T04:15:03;4.7;;;3.9;;
537;SDS011;254;48.524;8.926;2022-11-15T04:16:03;6.5;;;4.1;;
537;SDS011;254;48.524;8.926;2022-11-15T04:17:02;6.0;;;4.5;;
537;SDS011;254;48.524;8.926;2022-11-15T04:18:02;6.4;;;4.0;;
537;SDS011;254;48.524;8.926;2022-11-15T04:19:03;7.8;;;4.7;;
537;SDS011;254;48.524;8.926;2022-11-15T04:20:02;4.8;;;4.3;;
537;SDS011;254;48.524;8.926;2022-11-15T04:21:02;6.8;;;4.6;;
537;SDS011;254;48.524;8.926;2022-11-15T04:22:02;6.1;;;4.6;;
537;SDS011;254;48.524;8.926;2022-11-15T04:23:03;5.7;;;4.1;;
537;SDS011;254;48.524;8.926;2022-11-15T04:24:02;6.9;;;4.4;;
537;SDS011;254;48.524;8.926;2022-11-15T04:25:03;4.6;;;4.1;;
537;SDS011;254;48.524;8.926;2022-11-15T04:26:03;6.3;;;4.7;;
537;SDS011;254;48.524;8.926;2022-11-15T04:27:02;5.4;;;4.0;;
537;SDS011;254;48.524;8.926;2022-11-15T04:28:03;4.6;;;4.2;;
537;SDS011;254;48.524;8.926;2022-11-15T04:29:01;7.6;;;4.8;;
537;SDS011;254;48.524;8.926;2022-11-15T04:30:02;6.8;;;4.2;;
537;SDS011;254;48.524;8.926;2022-11-15T04:31:03;5.1;;;4.2;;
537;SDS011;254;48.524;8.926;2022-11-15T04:32:04;5.4;;;4.4;;
537;SDS011;254;48.524;8.926;2022-11-15T04:33:03;6.3;;;4.6;;
537;SDS011;254;48.524;8.926;2022-11-15T04:34:01;5.6;;;4.4;;
537;SDS011;254;48.524;8.926;2022-11-15T04:35:02;6.0;;;4.6;;
537;SDS011;254;48.524;8.926;2022-11-15T04:36:02;7.0;;;4.4;;
537;SDS011;254;48.524;8.926;2022-11-15T04:37:02;5.2;;;4.5;;
537;SDS011;254;48.524;8.926;2022-11-15T04:38:03;5.4;;;4.3;;
537;SDS011;254;48.524;8.926;2022-11-15T04:39:02;6.0;;;4.6;;
537;SDS011;254;48.524;8.926;2022-11-15T04:40:03;5.7;;;4.4;;
537;SDS011;254;48.524;8.926;2022-11-15T04:41:03;6.7;;;4.6;;
537;SDS011;254;48.524;8.926;2022-11-15T04:42:02;6.9;;;4.5;;
537;SDS011;254;48.524;8.926;2022-11-15T04:43:03;7.7;;;3.9;;
537;SDS011;254;48.524;8.926;2022-11-15T04:44:03;7.2;;;4.6;;
537;SDS011;254;48.524;8.926;2022-11-15T04:45:02;7.7;;;5.3;;
537;SDS011;254;48.524;8.926;2022-11-15T04:46:02;5.8;;;3.8;;
537;SDS011;254;48.524;8.926;2022-11-15T04:47:03;5.3;;;3.8;;
537;SDS011;254;48.524;8.926;2022-11-15T04:48:01;7.0;;;4.2;;
537;SDS011;254;48.524;8.926;2022-11-15T04:49:02;5.3;;;4.1;;
537;SDS011;254;48.524;8.926;2022-11-15T04:50:03;4.7;;;4.2;;
537;SDS011;254;48.524;8.926;2022-11-15T04:51:02;4.8;;;4.3;;
537;SDS011;254;48.524;8.926;2022-11-15T04:52:02;5.2;;;3.8;;
537;SDS011;254;48.524;8.926;2022-11-15T04:53:02;5.5;;;3.9;;
537;SDS011;254;48.524;8.926;2022-11-15T04:54:02;4.2;;;3.6;;
537;SDS011;254;48.524;8.926;2022-11-15T04:55:03;4.2;;;3.0;;
537;SDS011;254;48.524;8.926;2022-11-15T04:56:02;3.3;;;3.0;;
537;SDS011;254;48.524;8.926;2022-11-15T04:57:02;5.3;;;4.2;;
537;SDS011;254;48.524;8.926;2022-11-15T04:58:02;6.1;;;4.2;;
537;SDS011;254;48.524;8.926;2022-11-15T04:59:02;6.1;;;5.2;;
537;SDS011;254;48.524;8.926;2022-11-15T05:00:03;7.2;;;5.2;;
537;SDS011;254;48.524;8.926;2022-11-15T05:01:06;7.5;;;5.3;;
537;SDS011;254;48.524;8.926;2022-11-15T05:02:03;6.4;;;5.0;;
537;SDS011;254;48.524;8.926;2022-11-15T05:03:02;5.5;;;4.9;;
537;SDS011;254;48.524;8.926;2022-11-15T05:04:02;6.3;;;5.2;;
537;SDS011;254;48.524;8.926;2022-11-15T05:05:03;7.9;;;5.4;;
537;SDS011;254;48.524;8.926;2022-11-15T05:06:02;6.6;;;4.5;;
537;SDS011;254;48.524;8.926;2022-11-15T05:07:03;5.3;;;4.8;;
537;SDS011;254;48.524;8.926;2022-11-15T05:08:01;6.7;;;5.3;;
537;SDS011;254;48.524;8.926;2022-11-15T05:09:02;7.5;;;6.1;;
537;SDS011;254;48.524;8.926;2022-11-15T05:10:03;8.2;;;7.1;;
537;SDS011;254;48.524;8.926;2022-11-15T05:11:01;8.0;;;6.7;;
537;SDS011;254;48.524;8.926;2022-11-15T05:12:02;9.5;;;6.1;;
537;SDS011;254;48.524;8.926;2022-11-15T05:13:03;7.9;;;6.1;;
537;SDS011;254;48.524;8.926;2022-11-15T05:14:02;7.6;;;6.2;;
537;SDS011;254;48.524;8.926;2022-11-15T05:15:02;8.2;;;5.8;;
537;SDS011;254;48.524;8.926;2022-11-15T05:16:03;8.3;;;6.0;;
537;SDS011;254;48.524;8.926;2022-11-15T05:17:02;12.3;;;8.0;;
537;SDS011;254;48.524;8.926;2022-11-15T05:18:02;10.8;;;8.8;;
537;SDS011;254;48.524;8.926;2022-11-15T05:19:03;11.4;;;8.0;;
537;SDS011;254;48.524;8.926;2022-11-15T05:20:02;8.9;;;7.8;;
537;SDS011;254;48.524;8.926;2022-11-15T05:21:03;12.3;;;7.8;;
537;SDS011;254;48.524;8.926;2022-11-15T05:22:03;9.1;;;7.0;;
537;SDS011;254;48.524;8.926;2022-11-15T05:23:02;8.9;;;7.3;;
537;SDS011;254;48.524;8.926;2022-11-15T05:24:02;10.1;;;8.4;;
537;SDS011;254;48.524;8.926;2022-11-15T05:25:03;8.2;;;7.4;;
537;SDS011;254;48.524;8.926;2022-11-15T05:26:03;11.9;;;9.3;;
537;SDS011;254;48.524;8.926;2022-11-15T05:27:02;8.8;;;7.7;;
537;SDS011;254;48.524;8.926;2022-11-15T05:28:03;9.7;;;8.3;;
537;SDS011;254;48.524;8.926;2022-11-15T05:29:02;12.7;;;8.5;;
537;SDS011;254;48.524;8.926;2022-11-15T05:30:02;9.5;;;8.6;;
537;SDS011;254;48.524;8.926;2022-11-15T05:31:02;12.3;;;9.6;;
537;SDS011;254;48.524;8.926;2022-11-15T05:32:02;10.7;;;9.7;;
537;SDS011;254;48.524;8.926;2022-11-15T05:33:03;9.4;;;8.5;;
537;SDS011;254;48.524;8.926;2022-11-15T05:34:02;10.7;;;8.5;;
537;SDS011;254;48.524;8.926;2022-11-15T05:35:02;10.1;;;8.6;;
537;SDS011;254;48.524;8.926;2022-11-15T05:36:04;10.1;;;8.9;;
537;SDS011;254;48.524;8.926;2022-11-15T05:37:01;10.2;;;9.2;;
537;SDS011;254;48.524;8.926;2022-11-15T05:38:02;11.1;;;8.9;;
537;SDS011;254;48.524;8.926;2022-11-15T05:39:03;9.9;;;8.8;;
537;SDS011;254;48.524;8.926;2022-11-15T05:40:03;11.1;;;9.1;;
537;SDS011;254;48.524;8.926;2022-11-15T05:41:02;12.5;;;9.4;;
537;SDS011;254;48.524;8.926;2022-11-15T05:42:05;12.4;;;10.2;;
537;SDS011;254;48.524;8.926;2022-11-15T05:43:02;11.5;;;10.1;;
537;SDS011;254;48.524;8.926;2022-11-15T05:44:03;9.8;;;8.8;;
537;SDS011;254;48.524;8.926;2022-11-15T05:45:03;11.1;;;9.7;;
537;SDS011;254;48.524;8.926;2022-11-15T05:46:02;10.5;;;9.4;;
537;SDS011;254;48.524;8.926;2022-11-15T05:47:03;10.1;;;8.7;;
537;SDS011;254;48.524;8.926;2022-11-15T05:48:03;11.6;;;9.5;;
537;SDS011;254;48.524;8.926;2022-11-15T05:49:03;11.1;;;9.1;;
537;SDS011;254;48.524;8.926;2022-11-15T05:50:03;9.5;;;8.5;;
537;SDS011;254;48.524;8.926;2022-11-15T05:51:02;10.2;;;8.0;;
537;SDS011;254;48.524;8.926;2022-11-15T05:52:02;9.4;;;7.7;;
537;SDS011;254;48.524;8.926;2022-11-15T05:53:02;9.0;;;6.8;;
537;SDS011;254;48.524;8.926;2022-11-15T05:54:02;8.2;;;7.3;;
537;SDS011;254;48.524;8.926;2022-11-15T05:55:02;8.2;;;7.4;;
537;SDS011;254;48.524;8.926;2022-11-15T05:56:03;9.2;;;7.8;;
537;SDS011;254;48.524;8.926;2022-11-15T05:57:02;9.1;;;7.1;;
537;SDS011;254;48.524;8.926;2022-11-15T05:58:03;11.9;;;8.7;;
537;SDS011;254;48.524;8.926;2022-11-15T05:59:02;11.7;;;9.7;;
537;SDS011;254;48.524;8.926;2022-11-15T06:00:03;10.0;;;9.0;;
537;SDS011;254;48.524;8.926;2022-11-15T06:01:03;11.4;;;10.0;;
537;SDS011;254;48.524;8.926;2022-11-15T06:02:02;12.6;;;9.4;;
537;SDS011;254;48.524;8.926;2022-11-15T06:03:02;12.5;;;9.9;;
537;SDS011;254;48.524;8.926;2022-11-15T06:04:02;10.3;;;9.2;;
537;SDS011;254;48.524;8.926;2022-11-15T06:05:03;12.7;;;10.4;;
537;SDS011;254;48.524;8.926;2022-11-15T06:06:04;12.3;;;9.3;;
537;SDS011;254;48.524;8.926;2022-11-15T06:07:02;12.2;;;9.4;;
537;SDS011;254;48.524;8.926;2022-11-15T06:08:02;11.0;;;8.8;;
537;SDS011;254;48.524;8.926;2022-11-15T06:09:02;10.8;;;8.9;;
537;SDS011;254;48.524;8.926;2022-11-15T06:10:03;8.8;;;7.9;;
537;SDS011;254;48.524;8.926;2022-11-15T06:11:03;9.8;;;8.0;;
537;SDS011;254;48.524;8.926;2022-11-15T06:12:03;7.8;;;7.0;;
537;SDS011;254;48.524;8.926;2022-11-15T06:13:02;8.0;;;6.9;;
537;SDS011;254;48.524;8.926;2022-11-15T06:14:02;7.6;;;6.7;;
537;SDS011;254;48.524;8.926;2022-11-15T06:15:03;11.8;;;8.1;;
537;SDS011;254;48.524;8.926;2022-11-15T06:16:03;9.5;;;7.5;;
537;SDS011;254;48.524;8.926;2022-11-15T06:17:02;8.1;;;7.1;;
537;SDS011;254;48.524;8.926;2022-11-15T06:18:02;9.5;;;7.2;;
537;SDS011;254;48.524;8.926;2022-11-15T06:19:02;7.8;;;6.9;;
537;SDS011;254;48.524;8.926;2022-11-15T06:20:02;6.9;;;5.4;;
537;SDS011;254;48.524;8.926;2022-11-15T06:21:03;7.1;;;4.9;;
537;SDS011;254;48.524;8.926;2022-11-15T06:22:03;6.3;;;5.0;;
537;SDS011;254;48.524;8.926;2022-11-15T06:23:03;6.6;;;4.9;;
537;SDS011;254;48.524;8.926;2022-11-15T06:24:03;6.4;;;4.5;;
537;SDS011;254;48.524;8.926;2022-11-15T06:25:03;6.1;;;4.1;;
537;SDS011;254;48.524;8.926;2022-11-15T06:26:02;5.3;;;4.7;;
537;SDS011;254;48.524;8.926;2022-11-15T06:27:03;4.9;;;4.4;;
537;SDS011;254;48.524;8.926;2022-11-15T06:28:01;6.5;;;5.0;;
537;SDS011;254;48.524;8.926;2022-11-15T06:29:02;7.2;;;5.1;;
537;SDS011;254;48.524;8.926;2022-11-15T06:30:03;5.8;;;5.1;;
537;SDS011;254;48.524;8.926;2022-11-15T06:31:03;7.8;;;5.9;;
537;SDS011;254;48.524;8.926;2022-11-15T06:32:02;9.8;;;7.6;;
537;SDS011;254;48.524;8.926;2022-11-15T06:33:04;10.3;;;7.5;;
537;SDS011;254;48.524;8.926;2022-11-15T06:34:02;11.7;;;7.6;;
537;SDS011;254;48.524;8.926;2022-11-15T06:35:03;9.3;;;7.1;;
537;SDS011;254;48.524;8.926;2022-11-15T06:36:03;8.2;;;7.3;;
537;SDS011;254;48.524;8.926;2022-11-15T06:37:02;8.8;;;7.7;;
537;SDS011;254;48.524;8.926;2022-11-15T06:38:02;13.4;;;7.8;;